Time;durP1;ratioP1;P1;durP2;ratioP2;P2;SDS_P1;SDS_P2;PMS_P1;PMS_P2;Temp;Humidity;BMP_temperature;BMP_pressure;BME280_temperature;BME280_humidity;BME280_pressure;Samples;Min_cycle;Max_cycle;Signal;HPM_P1;HPM_P2
2023/10/12 00:02:28;;;;;;;9.65;4.40;;;15.90;99.90;;;;;;5061290;28;20039;-47
2023/10/12 00:05:00;;;;;;;4.90;3.60;;;15.80;99.90;;;;;;5055487;28;20041;-48
2023/10/12 00:07:34;;;;;;;5.68;3.00;;;15.70;99.90;;;;;;5065982;28;20044;-49
2023/10/12 00:10:19;;;;;;;4.65;2.60;;;15.70;99.90;;;;;;5056091;28;20040;-49
2023/10/12 00:12:46;;;;;;;3.22;2.50;;;15.50;99.90;;;;;;5057810;28;20120;-49
2023/10/12 00:15:38;;;;;;;4.55;2.40;;;15.50;99.90;;;;;;5065650;28;20032;-52
2023/10/12 00:18:08;;;;;;;1.85;1.15;;;15.40;99.90;;;;;;5065338;28;20048;-48
2023/10/12 00:20:37;;;;;;;2.28;1.33;;;15.20;99.90;;;;;;5062606;28;20040;-48
2023/10/12 00:23:13;;;;;;;4.53;1.70;;;15.20;99.90;;;;;;5065444;28;20612;-48
2023/10/12 00:25:46;;;;;;;1.77;1.10;;;15.10;99.90;;;;;;5062877;28;20041;-48
2023/10/12 00:28:17;;;;;;;1.75;1.00;;;14.90;99.90;;;;;;5066736;28;20474;-50
2023/10/12 00:30:43;;;;;;;2.88;1.05;;;14.90;99.90;;;;;;5062564;28;20093;-49
2023/10/12 00:33:09;;;;;;;4.28;1.10;;;14.70;99.90;;;;;;5061175;28;20482;-48
2023/10/12 00:35:39;;;;;;;3.63;1.63;;;14.60;99.90;;;;;;5059227;28;20391;-49
2023/10/12 00:38:18;;;;;;;5.13;1.60;;;14.60;99.90;;;;;;5065031;28;20041;-48
2023/10/12 00:40:57;;;;;;;3.47;1.65;;;14.40;99.90;;;;;;5065147;28;20037;-49
2023/10/12 00:43:36;;;;;;;2.75;1.58;;;14.40;99.90;;;;;;5058329;28;20131;-51
2023/10/12 00:46:21;;;;;;;3.03;1.40;;;14.20;99.90;;;;;;5067942;28;20048;-48
2023/10/12 00:48:50;;;;;;;5.13;1.45;;;14.10;99.90;;;;;;5062585;28;20041;-48
2023/10/12 00:51:18;;;;;;;4.75;1.30;;;14.00;99.90;;;;;;5062954;28;20131;-51
2023/10/12 00:53:55;;;;;;;2.53;1.05;;;13.90;99.90;;;;;;5059882;28;20135;-48
2023/10/12 00:56:28;;;;;;;2.15;0.82;;;13.80;99.90;;;;;;5057744;28;20055;-47
2023/10/12 00:58:55;;;;;;;5.85;1.13;;;13.80;99.90;;;;;;5059742;28;20051;-51
2023/10/12 01:01:22;;;;;;;3.97;1.23;;;13.70;99.90;;;;;;5059634;28;20048;-48
2023/10/12 01:03:50;;;;;;;6.55;1.45;;;13.60;99.90;;;;;;5060395;28;20045;-49
2023/10/12 01:06:28;;;;;;;4.00;1.20;;;13.60;99.90;;;;;;5056364;28;20044;-48
2023/10/12 01:08:59;;;;;;;4.72;1.38;;;13.70;99.90;;;;;;5060852;28;20398;-48
2023/10/12 01:11:26;;;;;;;5.50;1.23;;;13.50;99.90;;;;;;5055641;28;20544;-48
2023/10/12 01:16:42;;;;;;;7.07;1.60;;;13.40;99.90;;;;;;5059161;28;20040;-51
2023/10/12 01:19:08;;;;;;;5.90;1.40;;;13.30;99.90;;;;;;5058641;28;20199;-47
2023/10/12 01:21:37;;;;;;;5.13;1.27;;;13.30;99.90;;;;;;5059129;28;20128;-51
2023/10/12 01:24:12;;;;;;;5.82;1.35;;;13.30;99.90;;;;;;5058201;28;20082;-47
2023/10/12 01:26:38;;;;;;;6.00;1.75;;;13.20;99.90;;;;;;5058500;28;20040;-47
2023/10/12 01:29:04;;;;;;;7.63;1.75;;;13.30;99.90;;;;;;5058466;28;20572;-47
2023/10/12 01:31:30;;;;;;;7.03;1.95;;;13.30;99.90;;;;;;5058927;28;20688;-48
2023/10/12 01:33:57;;;;;;;8.50;2.22;;;13.30;99.90;;;;;;5055201;28;20093;-47
2023/10/12 01:36:30;;;;;;;7.25;2.00;;;13.30;99.90;;;;;;5057266;28;20047;-47
2023/10/12 01:39:12;;;;;;;7.78;2.78;;;13.30;99.90;;;;;;5057061;28;20073;-48
2023/10/12 01:41:42;;;;;;;6.70;2.13;;;13.30;99.90;;;;;;5057185;28;20258;-48
2023/10/12 01:44:11;;;;;;;6.85;1.98;;;13.40;99.90;;;;;;5064032;28;20388;-47
2023/10/12 01:46:41;;;;;;;5.20;1.95;;;13.30;99.90;;;;;;5063746;28;20041;-48
2023/10/12 01:49:14;;;;;;;9.57;2.38;;;13.30;99.90;;;;;;5066138;28;20078;-48
2023/10/12 01:51:45;;;;;;;7.95;2.28;;;13.40;99.90;;;;;;5062339;28;20036;-48
2023/10/12 01:54:24;;;;;;;7.28;1.63;;;13.40;99.90;;;;;;5063839;28;20033;-51
2023/10/12 01:56:51;;;;;;;5.88;1.75;;;13.40;99.90;;;;;;5060121;28;20126;-50
2023/10/12 01:59:19;;;;;;;4.73;1.57;;;13.30;99.90;;;;;;5062752;28;20044;-48
2023/10/12 02:01:47;;;;;;;7.18;1.85;;;13.30;99.90;;;;;;5061422;28;20641;-48
2023/10/12 02:04:13;;;;;;;6.03;1.98;;;13.40;99.90;;;;;;5060662;28;20047;-47
2023/10/12 02:06:39;;;;;;;9.23;2.33;;;13.40;99.90;;;;;;5060776;28;20041;-49
2023/10/12 02:09:09;;;;;;;6.93;1.63;;;13.40;99.90;;;;;;5062709;28;20040;-49
2023/10/12 02:11:43;;;;;;;7.00;1.80;;;13.40;99.90;;;;;;5064412;28;20465;-48
2023/10/12 02:14:11;;;;;;;6.15;1.92;;;13.30;99.90;;;;;;5057561;28;20052;-48
2023/10/12 02:16:38;;;;;;;9.10;2.00;;;13.40;99.90;;;;;;5058468;28;20186;-48
2023/10/12 02:19:04;;;;;;;9.73;1.70;;;13.40;99.90;;;;;;5059233;28;20045;-48
2023/10/12 02:21:33;;;;;;;7.30;1.83;;;13.40;99.90;;;;;;5061238;28;20047;-47
2023/10/12 02:26:38;;;;;;;5.30;1.50;;;13.40;99.90;;;;;;5061516;28;20048;-48
2023/10/12 02:31:40;;;;;;;11.93;2.10;;;13.40;99.90;;;;;;5063033;28;20370;-49
2023/10/12 02:34:17;;;;;;;11.95;2.00;;;13.40;99.90;;;;;;5059532;28;20041;-48
2023/10/12 02:39:47;;;;;;;11.40;2.42;;;13.30;99.90;;;;;;4999376;28;20050;-48
2023/10/12 02:47:22;;;;;;;7.93;2.60;;;13.30;99.90;;;;;;5003283;28;20084;-47
2023/10/12 02:50:00;;;;;;;9.80;2.03;;;13.30;99.90;;;;;;5005155;28;20233;-48
2023/10/12 02:52:28;;;;;;;8.65;1.83;;;13.20;99.90;;;;;;5005388;28;20041;-48
2023/10/12 02:54:55;;;;;;;8.00;2.08;;;13.20;99.90;;;;;;5003156;28;20125;-47
2023/10/12 02:57:24;;;;;;;12.15;2.30;;;13.20;99.90;;;;;;5007237;28;20129;-48
2023/10/12 03:02:39;;;;;;;10.80;2.10;;;13.20;99.90;;;;;;5005089;28;20512;-48
2023/10/12 03:05:06;;;;;;;;;;;13.30;99.90;;;;;;4990594;28;20484;-47
2023/10/12 03:07:37;;;;;;;12.68;2.13;;;13.20;99.90;;;;;;5005926;28;19921;-47
2023/10/12 03:10:07;;;;;;;7.35;2.03;;;13.20;99.90;;;;;;4998845;28;20045;-48
2023/10/12 03:12:43;;;;;;;9.98;2.17;;;13.20;99.90;;;;;;4989767;28;20046;-48
2023/10/12 03:15:13;;;;;;;8.10;2.63;;;13.20;99.90;;;;;;5061420;28;20045;-50
2023/10/12 03:17:45;;;;;;;7.32;2.50;;;13.30;99.90;;;;;;5062288;28;20045;-47
2023/10/12 03:20:29;;;;;;;8.75;1.83;;;13.30;99.90;;;;;;5067378;28;20051;-48
2023/10/12 03:23:12;;;;;;;7.30;2.10;;;13.20;99.90;;;;;;5063358;28;20036;-48
2023/10/12 03:25:43;;;;;;;13.68;2.38;;;13.20;99.90;;;;;;5059098;28;20375;-51
2023/10/12 03:28:13;;;;;;;7.90;2.35;;;13.30;99.90;;;;;;5059006;28;20491;-49
2023/10/12 03:30:43;;;;;;;8.35;2.30;;;13.20;99.90;;;;;;5061725;28;20395;-50
2023/10/12 03:33:15;;;;;;;10.27;2.40;;;13.10;99.90;;;;;;5061259;28;20060;-51
2023/10/12 03:36:13;;;;;;;15.10;2.33;;;13.20;99.90;;;;;;5060460;28;20045;-48
2023/10/12 03:38:33;;;;;;;11.73;2.90;;;13.20;99.90;;;;;;5061753;28;20041;-49
2023/10/12 03:43:48;;;;;;;7.78;2.55;;;13.30;99.90;;;;;;5056441;28;20139;-50
2023/10/12 03:46:32;;;;;;;15.13;2.65;;;13.20;99.90;;;;;;5060657;28;20166;-47
2023/10/12 03:49:55;;;;;;;10.18;2.80;;;13.20;99.90;;;;;;5056683;28;21117;-48
2023/10/12 03:51:47;;;;;;;11.82;2.53;;;13.20;99.90;;;;;;5052391;28;20175;-51
2023/10/12 03:54:25;;;;;;;9.75;2.63;;;13.20;99.90;;;;;;5055731;28;20128;-47
2023/10/12 03:56:53;;;;;;;12.60;2.88;;;13.20;99.90;;;;;;5058401;28;20040;-48
2023/10/12 03:59:20;;;;;;;10.00;2.92;;;13.20;99.90;;;;;;5058854;28;20040;-49
2023/10/12 04:01:47;;;;;;;12.68;3.08;;;13.20;99.90;;;;;;5060932;28;20391;-47
2023/10/12 04:09:31;;;;;;;11.25;3.20;;;13.20;99.90;;;;;;5058150;28;20502;-47
2023/10/12 04:14:49;;;;;;;8.60;3.17;;;13.20;99.90;;;;;;5058526;28;20036;-50
2023/10/12 04:17:34;;;;;;;10.25;3.13;;;13.30;99.90;;;;;;5057879;28;20125;-48
2023/10/12 04:25:21;;;;;;;8.68;3.28;;;13.20;99.90;;;;;;5057770;28;20128;-49
2023/10/12 04:27:50;;;;;;;10.18;3.05;;;13.20;99.90;;;;;;5057618;28;20037;-49
2023/10/12 04:30:32;;;;;;;7.15;3.10;;;13.20;99.90;;;;;;5057695;28;20550;-48
2023/10/12 04:43:39;;;;;;;10.90;3.17;;;13.20;99.90;;;;;;5062146;28;20169;-49
2023/10/12 04:48:41;;;;;;;12.27;3.20;;;13.20;99.90;;;;;;5056045;28;20715;-48
2023/10/12 04:51:07;;;;;;;;;;;13.10;99.90;;;;;;5056875;28;20437;-49
2023/10/12 04:56:23;;;;;;;10.43;3.20;;;13.20;99.90;;;;;;5057180;28;20045;-50
2023/10/12 04:59:15;;;;;;;7.97;2.90;;;13.10;99.90;;;;;;5054765;28;20056;-48
2023/10/12 05:02:06;;;;;;;8.18;2.90;;;13.20;99.90;;;;;;5055159;28;20387;-48
2023/10/12 05:04:48;;;;;;;10.35;3.35;;;13.10;99.90;;;;;;5054285;28;20048;-48
2023/10/12 05:09:49;;;;;;;6.97;2.90;;;13.10;99.90;;;;;;5056368;28;20067;-48
2023/10/12 05:12:25;;;;;;;9.13;2.90;;;13.20;99.90;;;;;;5055715;28;20045;-48
2023/10/12 05:15:01;;;;;;;4.95;2.55;;;13.20;99.90;;;;;;5054434;28;20124;-48
2023/10/12 05:17:27;;;;;;;9.55;3.03;;;13.10;99.90;;;;;;5061001;28;20036;-51
2023/10/12 05:19:53;;;;;;;9.48;2.95;;;13.10;99.90;;;;;;5057475;28;20032;-48
2023/10/12 05:22:20;;;;;;;8.60;3.38;;;13.10;99.90;;;;;;5059307;28;20493;-47
2023/10/12 05:24:48;;;;;;;8.23;3.50;;;13.10;99.90;;;;;;5056743;28;20055;-47
2023/10/12 05:27:23;;;;;;;10.68;3.58;;;13.10;99.90;;;;;;5058127;28;20398;-47
2023/10/12 05:29:54;;;;;;;13.27;3.40;;;13.10;99.90;;;;;;5057763;28;20053;-48
2023/10/12 05:32:36;;;;;;;13.80;4.05;;;13.10;99.90;;;;;;5055010;28;20136;-47
2023/10/12 05:35:04;;;;;;;11.77;3.33;;;13.10;99.90;;;;;;5063672;28;20045;-48
2023/10/12 05:37:38;;;;;;;15.38;3.53;;;13.20;99.90;;;;;;5058048;28;20482;-48
2023/10/12 05:40:10;;;;;;;11.45;3.13;;;13.10;99.90;;;;;;5054046;28;20225;-47
2023/10/12 05:42:39;;;;;;;11.25;3.78;;;13.20;99.90;;;;;;5059847;28;21892;-48
2023/10/12 05:45:22;;;;;;;11.70;4.00;;;13.10;99.90;;;;;;5058198;28;20106;-50
2023/10/12 05:47:53;;;;;;;12.32;3.60;;;13.10;99.90;;;;;;5058484;28;20474;-48
2023/10/12 05:50:23;;;;;;;8.23;3.85;;;13.10;99.90;;;;;;5060058;28;20056;-48
2023/10/12 05:52:53;;;;;;;9.90;3.47;;;13.10;99.90;;;;;;5060197;28;20047;-47
2023/10/12 05:55:21;;;;;;;8.50;3.25;;;13.10;99.90;;;;;;5060489;28;20047;-49
2023/10/12 05:57:48;;;;;;;8.45;3.70;;;13.20;99.90;;;;;;5062461;28;20044;-48
2023/10/12 06:00:35;;;;;;;9.32;3.47;;;13.00;99.90;;;;;;5062793;28;20063;-51
2023/10/12 06:03:03;;;;;;;8.37;3.63;;;13.10;99.90;;;;;;5059024;28;20346;-50
2023/10/12 06:05:29;;;;;;;13.75;3.80;;;13.10;99.90;;;;;;5056968;28;20041;-48
2023/10/12 06:08:00;;;;;;;7.97;3.80;;;13.20;99.90;;;;;;5059955;28;20474;-47
2023/10/12 06:10:27;;;;;;;11.43;3.72;;;13.20;99.90;;;;;;5059585;28;20139;-49
2023/10/12 06:12:53;;;;;;;12.35;4.22;;;13.10;99.90;;;;;;5063277;28;20186;-51
2023/10/12 06:15:22;;;;;;;13.88;4.78;;;13.10;99.90;;;;;;5055751;28;20060;-47
2023/10/12 06:17:49;;;;;;;7.80;4.10;;;13.10;99.90;;;;;;5063132;28;20045;-48
2023/10/12 06:20:29;;;;;;;11.20;4.13;;;13.10;99.90;;;;;;5061885;28;20494;-48
2023/10/12 06:22:55;;;;;;;11.05;4.15;;;13.20;99.90;;;;;;5051337;28;20045;-48
2023/10/12 06:25:21;;;;;;;8.73;3.53;;;13.20;99.90;;;;;;5059238;28;20085;-51
2023/10/12 06:27:50;;;;;;;11.98;4.43;;;13.20;99.90;;;;;;5059163;28;20083;-48
2023/10/12 06:30:23;;;;;;;17.55;4.60;;;13.20;99.90;;;;;;5064269;28;20123;-50
2023/10/12 06:32:49;;;;;;;13.90;4.70;;;13.20;99.90;;;;;;5067979;28;20405;-48
2023/10/12 06:37:49;;;;;;;12.75;4.53;;;13.10;99.90;;;;;;5068753;28;20041;-49
2023/10/12 06:45:52;;;;;;;13.23;4.45;;;13.20;99.90;;;;;;5064611;28;20467;-47
2023/10/12 06:51:10;;;;;;;11.52;4.50;;;13.20;99.90;;;;;;5066090;28;20448;-47
2023/10/12 06:53:37;;;;;;;17.73;5.53;;;13.20;99.90;;;;;;5062802;28;20053;-47
2023/10/12 07:04:27;;;;;;;11.85;5.40;;;13.20;99.90;;;;;;5029759;28;20115;-47
2023/10/12 07:06:56;;;;;;;14.50;5.18;;;13.30;99.90;;;;;;5024099;28;20049;-51
2023/10/12 07:09:38;;;;;;;12.45;5.10;;;13.30;99.90;;;;;;5037421;28;20498;-47
2023/10/12 07:12:10;;;;;;;11.60;5.05;;;13.40;99.90;;;;;;5038741;28;20053;-47
2023/10/12 07:14:47;;;;;;;12.57;5.43;;;13.30;99.90;;;;;;5039389;28;20128;-50
2023/10/12 07:17:13;;;;;;;9.90;4.70;;;13.30;99.90;;;;;;5041033;28;20083;-47
2023/10/12 07:19:53;;;;;;;12.40;4.80;;;13.30;99.90;;;;;;5036395;28;20303;-49
2023/10/12 07:22:20;;;;;;;9.43;4.95;;;13.30;99.90;;;;;;5037413;28;20072;-49
2023/10/12 07:24:46;;;;;;;10.00;4.93;;;13.40;99.90;;;;;;5039161;28;20419;-47
2023/10/12 07:27:17;;;;;;;10.20;4.40;;;13.40;99.90;;;;;;5032176;28;20073;-48
2023/10/12 07:29:44;;;;;;;10.30;4.47;;;13.30;99.90;;;;;;5030666;28;20049;-47
2023/10/12 07:32:18;;;;;;;11.40;4.25;;;13.20;99.90;;;;;;5031088;28;20049;-47
2023/10/12 07:34:52;;;;;;;9.07;4.88;;;13.20;99.90;;;;;;5035476;28;20063;-47
2023/10/12 07:37:18;;;;;;;7.90;4.05;;;13.20;99.90;;;;;;5069178;28;20044;-48
2023/10/12 07:39:44;;;;;;;12.85;4.35;;;13.20;99.90;;;;;;5066205;28;20121;-48
2023/10/12 07:42:13;;;;;;;10.25;3.90;;;13.20;99.90;;;;;;5061444;28;20078;-49
2023/10/12 07:44:42;;;;;;;11.38;4.18;;;13.10;99.90;;;;;;5066751;28;20056;-49
2023/10/12 07:47:18;;;;;;;12.00;4.65;;;13.20;99.90;;;;;;5055229;28;20045;-48
2023/10/12 07:49:49;;;;;;;11.80;4.72;;;13.20;99.90;;;;;;5059040;28;20042;-50
2023/10/12 07:54:54;;;;;;;16.40;5.57;;;13.60;99.90;;;;;;5068676;28;20127;-47
2023/10/12 07:57:29;;;;;;;12.55;5.35;;;13.90;99.90;;;;;;5070529;28;20074;-50
2023/10/12 08:08:08;;;;;;;8.80;4.28;;;15.00;99.90;;;;;;5056181;28;20053;-48
2023/10/12 08:15:55;;;;;;;8.00;3.20;;;15.50;99.90;;;;;;5064809;28;20139;-49
2023/10/12 08:21:24;;;;;;;12.18;4.00;;;15.80;99.90;;;;;;5053999;28;20458;-50
2023/10/12 08:24:09;;;;;;;9.25;3.65;;;15.90;99.90;;;;;;5069773;28;20041;-48
2023/10/12 08:32:04;;;;;;;10.70;3.72;;;16.00;99.90;;;;;;5065638;28;20126;-48
2023/10/12 08:39:38;;;;;;;9.02;3.28;;;16.00;99.90;;;;;;5072532;28;20083;-47
2023/10/12 08:42:36;;;;;;;10.23;3.28;;;15.90;99.90;;;;;;5064736;28;20098;-47
2023/10/12 08:45:14;;;;;;;9.73;3.42;;;15.90;99.90;;;;;;5051949;28;20535;-47
2023/10/12 08:47:48;;;;;;;9.05;3.40;;;15.80;99.90;;;;;;5052097;28;20033;-47
2023/10/12 08:52:50;;;;;;;7.40;2.70;;;15.60;99.90;;;;;;5051727;28;20440;-48
2023/10/12 08:55:24;;;;;;;9.00;2.95;;;15.70;99.90;;;;;;5052023;28;20037;-48
2023/10/12 08:58:11;;;;;;;10.90;3.40;;;15.60;99.90;;;;;;5052064;28;20128;-48
2023/10/12 09:00:44;;;;;;;7.75;3.03;;;15.60;99.90;;;;;;5052421;28;20053;-48
2023/10/12 09:03:24;;;;;;;7.53;3.00;;;15.40;99.90;;;;;;5052273;28;20041;-48
2023/10/12 09:05:51;;;;;;;9.80;2.97;;;15.50;99.90;;;;;;5051882;28;20056;-48
2023/10/12 09:11:02;;;;;;;8.27;3.13;;;15.50;99.90;;;;;;5052423;28;20280;-47
2023/10/12 09:13:29;;;;;;;7.50;3.17;;;15.50;99.90;;;;;;5053821;28;20511;-48
2023/10/12 09:15:57;;;;;;;13.87;3.27;;;15.50;99.90;;;;;;5054354;28;20116;-47
2023/10/12 09:18:24;;;;;;;6.30;2.75;;;15.50;99.90;;;;;;5051922;28;20033;-47
2023/10/12 09:23:29;;;;;;;11.13;3.65;;;15.60;99.90;;;;;;5054205;28;20053;-48
2023/10/12 09:31:15;;;;;;;7.65;2.80;;;15.70;99.90;;;;;;5052552;28;20048;-47
2023/10/12 09:33:45;;;;;;;11.75;2.92;;;15.60;99.90;;;;;;5054703;28;20052;-48
2023/10/12 09:36:11;;;;;;;11.05;3.00;;;15.60;99.90;;;;;;5050251;28;20048;-48
2023/10/12 09:38:38;;;;;;;11.00;2.97;;;15.60;99.90;;;;;;5051554;28;20049;-48
2023/10/12 09:41:09;;;;;;;12.23;3.35;;;15.60;99.90;;;;;;5051685;28;20045;-47
2023/10/12 09:43:40;;;;;;;8.77;2.70;;;15.60;99.90;;;;;;5065137;28;20372;-47
2023/10/12 09:46:09;;;;;;;9.65;3.13;;;15.50;99.90;;;;;;5065900;28;20139;-46
2023/10/12 09:48:38;;;;;;;15.63;11.07;;;15.50;99.90;;;;;;5066097;28;20124;-47
2023/10/12 09:51:15;;;;;;;114.10;102.47;;;15.50;99.90;;;;;;5071604;28;20097;-49
2023/10/12 09:53:53;;;;;;;41.78;31.27;;;15.50;99.90;;;;;;5071215;28;20105;-48
2023/10/12 09:56:28;;;;;;;12.32;3.75;;;15.50;99.90;;;;;;5091642;28;20042;-47
2023/10/12 10:06:55;;;;;;;11.63;2.75;;;15.50;99.90;;;;;;5056367;28;20061;-47
2023/10/12 10:11:59;;;;;;;491.60;381.13;;;15.60;99.90;;;;;;5068184;28;20044;-49
2023/10/12 10:14:33;;;;;;;287.17;223.63;;;15.60;99.90;;;;;;5071122;28;20120;-49
2023/10/12 10:17:00;;;;;;;117.70;87.55;;;15.80;99.90;;;;;;5068852;28;20562;-49
2023/10/12 10:19:30;;;;;;;97.20;67.70;;;16.00;99.90;;;;;;5069439;28;20048;-47
2023/10/12 10:22:06;;;;;;;1022.33;744.42;;;16.20;99.90;;;;;;5062434;28;20045;-48
2023/10/12 10:24:43;;;;;;;815.85;649.40;;;16.30;99.90;;;;;;5056843;28;20115;-48
2023/10/12 10:27:11;;;;;;;784.58;627.00;;;16.40;99.90;;;;;;5070153;28;20048;-51
2023/10/12 10:29:56;;;;;;;110.22;82.38;;;16.60;99.90;;;;;;5068496;28;20084;-49
2023/10/12 10:32:38;;;;;;;156.35;115.60;;;16.50;99.90;;;;;;5068806;28;20045;-49
2023/10/12 10:35:18;;;;;;;141.25;101.68;;;16.50;99.90;;;;;;5066236;28;20041;-50
2023/10/12 10:37:58;;;;;;;85.95;57.80;;;16.30;99.90;;;;;;5072081;28;20094;-48
2023/10/12 10:40:48;;;;;;;17.40;10.18;;;16.20;99.90;;;;;;5072961;28;20041;-50
2023/10/12 10:43:18;;;;;;;34.75;22.95;;;16.10;99.90;;;;;;5068538;28;20052;-48
2023/10/12 10:45:56;;;;;;;81.43;51.97;;;16.00;99.90;;;;;;5072398;28;20056;-48
2023/10/12 10:48:27;;;;;;;9.30;2.30;;;16.00;99.90;;;;;;5072738;28;20105;-47
2023/10/12 10:50:53;;;;;;;53.08;35.47;;;15.90;99.90;;;;;;5066385;28;20106;-50
2023/10/12 10:53:20;;;;;;;32.22;19.73;;;16.00;99.90;;;;;;5068688;28;20503;-47
2023/10/12 10:55:50;;;;;;;54.10;32.17;;;16.00;99.90;;;;;;5069342;28;20040;-50
2023/10/12 10:58:18;;;;;;;137.15;95.25;;;15.90;99.90;;;;;;5060136;28;20052;-47
2023/10/12 11:00:56;;;;;;;85.32;55.65;;;16.00;99.90;;;;;;5070673;28;20379;-49
2023/10/12 11:03:22;;;;;;;47.22;29.77;;;16.10;99.90;;;;;;5072459;28;20077;-47
2023/10/12 11:05:48;;;;;;;50.78;30.23;;;16.10;99.90;;;;;;5069746;28;20044;-48
2023/10/12 11:08:22;;;;;;;66.18;40.45;;;16.10;99.90;;;;;;5072980;28;20040;-50
2023/10/12 11:13:32;;;;;;;10.77;3.58;;;15.90;99.90;;;;;;5068333;28;20044;-47
2023/10/12 11:16:20;;;;;;;15.77;6.05;;;16.00;99.90;;;;;;5072218;28;20039;-50
2023/10/12 11:18:49;;;;;;;9.80;3.15;;;16.00;99.90;;;;;;5069574;28;20053;-50
2023/10/12 11:21:15;;;;;;;17.55;7.25;;;15.80;99.90;;;;;;5060560;28;20036;-48
2023/10/12 11:23:44;;;;;;;31.15;14.52;;;15.70;99.90;;;;;;5067754;28;20481;-47
2023/10/12 11:26:21;;;;;;;27.92;12.30;;;15.60;99.90;;;;;;5067027;28;20370;-47
2023/10/12 11:29:01;;;;;;;10.98;2.70;;;15.70;99.90;;;;;;5062615;28;20060;-50
2023/10/12 11:31:30;;;;;;;9.48;2.97;;;15.70;99.90;;;;;;5058127;28;20056;-48
2023/10/12 11:33:57;;;;;;;11.98;3.20;;;15.70;99.90;;;;;;5073169;28;20052;-47
2023/10/12 11:36:24;;;;;;;12.80;3.08;;;15.70;99.90;;;;;;5071160;28;20118;-51
2023/10/12 11:39:28;;;;;;;11.35;2.60;;;15.60;99.90;;;;;;5070105;28;20478;-48
2023/10/12 11:42:06;;;;;;;9.50;3.05;;;15.50;99.90;;;;;;5039208;28;20055;-48
2023/10/12 11:44:33;;;;;;;11.35;2.65;;;15.40;99.90;;;;;;5068380;28;20059;-51
2023/10/12 11:47:00;;;;;;;8.30;2.72;;;15.50;99.90;;;;;;5070488;28;20415;-49
2023/10/12 11:49:26;;;;;;;8.40;2.50;;;15.30;99.90;;;;;;5072547;28;20045;-50
2023/10/12 11:51:57;;;;;;;7.55;2.53;;;15.30;99.90;;;;;;5065511;28;20044;-49
2023/10/12 11:54:33;;;;;;;8.13;2.47;;;15.30;99.90;;;;;;5062371;28;20049;-50
2023/10/12 11:56:59;;;;;;;7.65;2.90;;;15.20;99.90;;;;;;5065698;28;20040;-49
2023/10/12 11:59:26;;;;;;;12.15;2.90;;;15.10;99.90;;;;;;5069810;28;20367;-47
2023/10/12 12:01:54;;;;;;;11.15;2.67;;;15.00;99.90;;;;;;5072758;28;20469;-49
2023/10/12 12:04:30;;;;;;;9.20;3.38;;;15.00;99.90;;;;;;5071194;28;20513;-47
2023/10/12 12:06:57;;;;;;;9.95;3.20;;;15.00;99.90;;;;;;5062026;28;20040;-50
2023/10/12 12:09:23;;;;;;;8.65;3.53;;;14.80;99.90;;;;;;5056913;28;20499;-47
2023/10/12 12:11:49;;;;;;;9.43;3.60;;;14.80;99.90;;;;;;5071901;28;20051;-49
2023/10/12 12:14:14;;;;;;;10.38;3.65;;;14.60;99.90;;;;;;5071396;28;20265;-48
2023/10/12 12:16:40;;;;;;;10.27;2.92;;;14.50;99.90;;;;;;5067531;28;20398;-47
2023/10/12 12:19:06;;;;;;;10.50;2.92;;;14.30;99.90;;;;;;5070479;28;20098;-47
2023/10/12 12:21:34;;;;;;;9.98;2.97;;;14.40;99.90;;;;;;5052434;28;20043;-46
2023/10/12 12:24:15;;;;;;;10.90;2.60;;;14.30;99.90;;;;;;5068786;28;20090;-47
2023/10/12 12:26:44;;;;;;;12.40;2.80;;;14.30;99.90;;;;;;5052330;28;20037;-48
2023/10/12 12:29:11;;;;;;;7.68;2.60;;;14.30;99.90;;;;;;5068561;28;20040;-47
2023/10/12 12:31:37;;;;;;;13.63;2.13;;;14.30;99.90;;;;;;5067970;28;20044;-47
2023/10/12 12:34:06;;;;;;;11.48;2.42;;;14.30;99.90;;;;;;5054379;28;20052;-46
2023/10/12 12:36:32;;;;;;;8.98;2.30;;;14.00;99.90;;;;;;5055518;28;20371;-47
2023/10/12 12:39:00;;;;;;;8.82;2.10;;;14.10;99.90;;;;;;5064013;28;20402;-49
2023/10/12 12:41:26;;;;;;;8.10;2.65;;;14.10;99.90;;;;;;5063699;28;20094;-46
2023/10/12 12:43:53;;;;;;;15.27;2.53;;;14.00;99.90;;;;;;5066975;28;20123;-49
2023/10/12 12:46:20;;;;;;;10.70;2.60;;;13.90;99.90;;;;;;5064576;28;20484;-46
2023/10/12 12:48:50;;;;;;;12.10;2.65;;;13.90;99.90;;;;;;5068075;28;20085;-48
2023/10/12 12:51:17;;;;;;;8.02;2.45;;;13.80;99.90;;;;;;5067302;28;20119;-47
2023/10/12 12:53:46;;;;;;;11.00;2.63;;;13.80;99.90;;;;;;5068201;28;20106;-48
2023/10/12 12:56:14;;;;;;;12.15;2.90;;;13.60;99.90;;;;;;5056578;28;20413;-47
2023/10/12 12:58:46;;;;;;;9.93;2.38;;;13.60;99.90;;;;;;5056416;28;20474;-47
2023/10/12 13:01:16;;;;;;;9.15;2.70;;;13.50;99.90;;;;;;5071178;28;20047;-48
2023/10/12 13:03:42;;;;;;;11.98;2.60;;;13.50;99.90;;;;;;5068237;28;20354;-48
2023/10/12 13:06:08;;;;;;;8.18;2.75;;;13.50;99.90;;;;;;5064008;28;20041;-49
2023/10/12 13:08:37;;;;;;;12.80;2.83;;;13.40;99.90;;;;;;5057112;28;20045;-48
2023/10/12 13:11:04;;;;;;;8.82;2.67;;;13.50;99.90;;;;;;5052310;28;20047;-50
2023/10/12 13:13:33;;;;;;;12.52;3.35;;;13.50;99.90;;;;;;5061365;28;20483;-48
2023/10/12 13:16:05;;;;;;;10.13;2.63;;;13.40;99.90;;;;;;5050760;28;20552;-48
2023/10/12 13:18:34;;;;;;;10.98;2.88;;;13.40;99.90;;;;;;5060862;28;20044;-47
2023/10/12 13:21:01;;;;;;;9.07;2.80;;;13.40;99.90;;;;;;5070791;28;20462;-50
2023/10/12 13:23:27;;;;;;;8.90;2.58;;;13.40;99.90;;;;;;5066987;28;20064;-51
2023/10/12 13:25:53;;;;;;;9.73;2.80;;;13.40;99.90;;;;;;5064449;28;20064;-47
2023/10/12 13:28:19;;;;;;;11.25;2.70;;;13.40;99.90;;;;;;5064413;28;20048;-50
2023/10/12 13:30:44;;;;;;;7.63;2.25;;;13.40;99.90;;;;;;5063594;28;20041;-50
2023/10/12 13:33:13;;;;;;;7.60;2.15;;;13.50;99.90;;;;;;5065144;28;20053;-47
2023/10/12 13:38:10;;;;;;;11.15;3.00;;;13.40;99.90;;;;;;5052570;28;20063;-47
2023/10/12 13:40:37;;;;;;;9.57;2.50;;;13.40;99.90;;;;;;5070659;28;20040;-47
2023/10/12 13:43:21;;;;;;;9.30;2.57;;;13.30;99.90;;;;;;5070881;28;20029;-48
2023/10/12 13:45:48;;;;;;;11.15;2.83;;;13.40;99.90;;;;;;5061926;28;20053;-47
2023/10/12 13:48:21;;;;;;;14.52;3.45;;;13.40;99.90;;;;;;5070614;28;20040;-47
2023/10/12 13:51:00;;;;;;;11.57;2.78;;;13.50;99.90;;;;;;5067560;28;20044;-48
2023/10/12 13:53:29;;;;;;;11.18;2.33;;;13.30;99.90;;;;;;5071616;28;20037;-47
2023/10/12 13:55:56;;;;;;;13.43;2.35;;;13.30;99.90;;;;;;5059584;28;20124;-48
2023/10/12 13:58:24;;;;;;;14.13;3.05;;;13.30;99.90;;;;;;5069443;28;20048;-47
2023/10/12 14:00:54;;;;;;;10.80;2.83;;;13.30;99.90;;;;;;5061268;28;20090;-47
2023/10/12 14:03:29;;;;;;;8.50;2.55;;;13.30;99.90;;;;;;5057478;28;20047;-48
2023/10/12 14:05:56;;;;;;;12.43;3.05;;;13.30;99.90;;;;;;5065916;28;20047;-48
2023/10/12 14:08:23;;;;;;;12.30;3.40;;;13.30;99.90;;;;;;5065811;28;20470;-48
2023/10/12 14:10:51;;;;;;;10.20;3.53;;;13.30;99.90;;;;;;5064778;28;20149;-49
2023/10/12 14:13:17;;;;;;;7.90;3.30;;;13.30;99.90;;;;;;5068703;28;20186;-48
2023/10/12 14:15:46;;;;;;;9.55;3.00;;;13.20;99.90;;;;;;5060283;28;20045;-48
2023/10/12 14:18:16;;;;;;;14.05;3.75;;;13.20;99.90;;;;;;5064171;28;20040;-48
2023/10/12 14:20:46;;;;;;;6.63;3.53;;;13.20;99.90;;;;;;5068714;28;20052;-48
2023/10/12 14:23:13;;;;;;;7.75;3.30;;;13.20;99.90;;;;;;5064235;28;20037;-48
2023/10/12 14:25:45;;;;;;;10.97;4.47;;;13.20;99.90;;;;;;5060331;28;20041;-47
2023/10/12 14:28:16;;;;;;;11.70;4.43;;;13.20;99.90;;;;;;5056879;28;20291;-48
2023/10/12 14:30:42;;;;;;;10.40;4.60;;;13.20;99.90;;;;;;5067100;28;20152;-48
2023/10/12 14:33:08;;;;;;;8.88;4.45;;;13.20;99.90;;;;;;5066323;28;20530;-48
2023/10/12 14:35:35;;;;;;;9.27;4.75;;;13.20;99.90;;;;;;5058998;28;20081;-48
2023/10/12 14:38:02;;;;;;;10.55;4.00;;;13.10;99.90;;;;;;5063892;28;20119;-49
2023/10/12 14:40:32;;;;;;;13.32;4.68;;;13.10;99.90;;;;;;5068070;28;20043;-47
2023/10/12 14:43:05;;;;;;;11.32;4.75;;;13.00;99.90;;;;;;5059116;28;20033;-50
2023/10/12 14:45:32;;;;;;;10.40;4.65;;;13.00;99.90;;;;;;5066144;28;20049;-50
2023/10/12 14:47:59;;;;;;;11.77;5.03;;;12.90;99.90;;;;;;5058516;28;20392;-49
2023/10/12 14:50:25;;;;;;;12.15;5.63;;;12.90;99.90;;;;;;5067098;28;20052;-47
2023/10/12 14:52:53;;;;;;;12.32;5.93;;;12.80;99.90;;;;;;5057052;28;20171;-49
2023/10/12 14:55:20;;;;;;;12.45;6.05;;;12.90;99.90;;;;;;5058322;28;20080;-47
2023/10/12 14:57:49;;;;;;;12.68;6.78;;;12.80;99.90;;;;;;5062052;28;20097;-50
2023/10/12 15:00:24;;;;;;;13.77;6.78;;;12.80;99.90;;;;;;5062739;28;20119;-51
2023/10/12 15:02:53;;;;;;;10.85;5.90;;;12.90;99.90;;;;;;5063313;28;20041;-48
2023/10/12 15:05:20;;;;;;;8.05;5.13;;;12.90;99.90;;;;;;5068461;28;20052;-47
2023/10/12 15:07:48;;;;;;;15.48;5.45;;;12.90;99.90;;;;;;5060324;28;20496;-47
2023/10/12 15:10:17;;;;;;;12.80;4.78;;;12.80;99.90;;;;;;5057375;28;20548;-49
2023/10/12 15:12:43;;;;;;;8.10;3.83;;;12.90;99.90;;;;;;5061825;28;20063;-46